sensor_id;sensor_type;location;lat;lon;timestamp;temperature;humidity
11820;DHT22;5967;48.944;9.240;2022-08-05T00:03:15;25.30;99.90
11820;DHT22;5967;48.944;9.240;2022-08-05T00:05:41;25.30;99.90
11820;DHT22;5967;48.944;9.240;2022-08-05T00:08:27;25.20;99.90
11820;DHT22;5967;48.944;9.240;2022-08-05T00:14:15;25.10;99.90
11820;DHT22;5967;48.944;9.240;2022-08-05T00:16:41;25.10;99.90
11820;DHT22;5967;48.944;9.240;2022-08-05T00:19:07;25.00;99.90
11820;DHT22;5967;48.944;9.240;2022-08-05T00:21:36;25.00;99.90
11820;DHT22;5967;48.944;9.240;2022-08-05T00:24:06;25.00;99.90
11820;DHT22;5967;48.944;9.240;2022-08-05T00:26:35;24.90;99.90
11820;DHT22;5967;48.944;9.240;2022-08-05T00:29:00;24.90;99.90
11820;DHT22;5967;48.944;9.240;2022-08-05T00:31:26;24.90;99.90
11820;DHT22;5967;48.944;9.240;2022-08-05T00:33:54;24.80;99.90
11820;DHT22;5967;48.944;9.240;2022-08-05T00:36:19;24.80;99.90
11820;DHT22;5967;48.944;9.240;2022-08-05T00:38:46;24.80;99.90
11820;DHT22;5967;48.944;9.240;2022-08-05T00:41:12;24.70;99.90
11820;DHT22;5967;48.944;9.240;2022-08-05T00:43:38;24.70;99.90
11820;DHT22;5967;48.944;9.240;2022-08-05T00:46:03;24.70;99.90
11820;DHT22;5967;48.944;9.240;2022-08-05T00:48:29;24.60;99.90
11820;DHT22;5967;48.944;9.240;2022-08-05T00:50:54;24.60;99.90
11820;DHT22;5967;48.944;9.240;2022-08-05T00:53:22;24.50;99.90
11820;DHT22;5967;48.944;9.240;2022-08-05T00:55:48;24.50;99.90
11820;DHT22;5967;48.944;9.240;2022-08-05T00:58:15;24.40;99.90
11820;DHT22;5967;48.944;9.240;2022-08-05T01:00:42;24.30;99.90
11820;DHT22;5967;48.944;9.240;2022-08-05T01:03:08;24.20;99.90
11820;DHT22;5967;48.944;9.240;2022-08-05T01:05:35;24.10;99.90
11820;DHT22;5967;48.944;9.240;2022-08-05T01:08:00;24.00;99.90
11820;DHT22;5967;48.944;9.240;2022-08-05T01:10:50;23.90;99.90
11820;DHT22;5967;48.944;9.240;2022-08-05T01:13:40;24.00;99.90
11820;DHT22;5967;48.944;9.240;2022-08-05T01:16:15;23.90;99.90
11820;DHT22;5967;48.944;9.240;2022-08-05T01:18:45;24.00;99.90
11820;DHT22;5967;48.944;9.240;2022-08-05T01:24:46;24.00;99.90
11820;DHT22;5967;48.944;9.240;2022-08-05T01:33:28;24.00;99.90
11820;DHT22;5967;48.944;9.240;2022-08-05T01:35:57;24.00;99.90
11820;DHT22;5967;48.944;9.240;2022-08-05T01:38:25;24.00;99.90
11820;DHT22;5967;48.944;9.240;2022-08-05T01:40:52;23.90;99.90
11820;DHT22;5967;48.944;9.240;2022-08-05T01:43:19;23.90;99.90
11820;DHT22;5967;48.944;9.240;2022-08-05T01:45:46;23.90;99.90
11820;DHT22;5967;48.944;9.240;2022-08-05T01:48:12;23.80;99.90
11820;DHT22;5967;48.944;9.240;2022-08-05T01:50:40;23.70;99.90
11820;DHT22;5967;48.944;9.240;2022-08-05T01:53:11;23.80;99.90
11820;DHT22;5967;48.944;9.240;2022-08-05T01:55:38;23.90;99.90
11820;DHT22;5967;48.944;9.240;2022-08-05T01:58:06;23.90;99.90
11820;DHT22;5967;48.944;9.240;2022-08-05T02:00:48;24.00;99.90
11820;DHT22;5967;48.944;9.240;2022-08-05T02:03:35;24.10;99.90
11820;DHT22;5967;48.944;9.240;2022-08-05T02:06:03;24.10;99.90
11820;DHT22;5967;48.944;9.240;2022-08-05T02:08:31;24.10;99.90
11820;DHT22;5967;48.944;9.240;2022-08-05T02:11:01;24.10;99.90
11820;DHT22;5967;48.944;9.240;2022-08-05T02:13:34;24.20;99.90
11820;DHT22;5967;48.944;9.240;2022-08-05T02:16:47;24.20;99.90
11820;DHT22;5967;48.944;9.240;2022-08-05T02:18:55;24.10;99.90
11820;DHT22;5967;48.944;9.240;2022-08-05T02:21:25;24.20;99.90
11820;DHT22;5967;48.944;9.240;2022-08-05T02:23:55;24.20;99.90
11820;DHT22;5967;48.944;9.240;2022-08-05T02:26:26;24.20;99.90
11820;DHT22;5967;48.944;9.240;2022-08-05T02:28:54;24.20;99.90
11820;DHT22;5967;48.944;9.240;2022-08-05T02:31:22;24.20;99.90
11820;DHT22;5967;48.944;9.240;2022-08-05T02:33:56;24.20;99.90
11820;DHT22;5967;48.944;9.240;2022-08-05T02:36:23;24.30;99.90
11820;DHT22;5967;48.944;9.240;2022-08-05T02:38:50;24.30;99.90
11820;DHT22;5967;48.944;9.240;2022-08-05T02:41:19;24.30;99.90
11820;DHT22;5967;48.944;9.240;2022-08-05T02:43:46;24.30;99.90
11820;DHT22;5967;48.944;9.240;2022-08-05T02:46:16;24.30;99.90
11820;DHT22;5967;48.944;9.240;2022-08-05T02:48:43;24.30;99.90
11820;DHT22;5967;48.944;9.240;2022-08-05T02:51:11;24.20;99.90
11820;DHT22;5967;48.944;9.240;2022-08-05T02:53:38;24.20;99.90
11820;DHT22;5967;48.944;9.240;2022-08-05T02:56:05;24.20;99.90
11820;DHT22;5967;48.944;9.240;2022-08-05T02:58:33;24.20;99.90
11820;DHT22;5967;48.944;9.240;2022-08-05T03:01:01;24.20;99.90
11820;DHT22;5967;48.944;9.240;2022-08-05T03:03:28;24.20;99.90
11820;DHT22;5967;48.944;9.240;2022-08-05T03:05:54;24.20;99.90
11820;DHT22;5967;48.944;9.240;2022-08-05T03:08:22;24.20;99.90
11820;DHT22;5967;48.944;9.240;2022-08-05T03:10:48;24.10;99.90
11820;DHT22;5967;48.944;9.240;2022-08-05T03:13:15;24.10;99.90
11820;DHT22;5967;48.944;9.240;2022-08-05T03:15:46;24.10;99.90
11820;DHT22;5967;48.944;9.240;2022-08-05T03:18:12;24.10;99.90
11820;DHT22;5967;48.944;9.240;2022-08-05T03:20:38;24.00;99.90
11820;DHT22;5967;48.944;9.240;2022-08-05T03:23:05;24.10;99.90
11820;DHT22;5967;48.944;9.240;2022-08-05T03:25:33;24.10;99.90
11820;DHT22;5967;48.944;9.240;2022-08-05T03:28:01;24.10;99.90
11820;DHT22;5967;48.944;9.240;2022-08-05T03:30:29;24.10;99.90
11820;DHT22;5967;48.944;9.240;2022-08-05T03:32:58;24.10;99.90
11820;DHT22;5967;48.944;9.240;2022-08-05T03:35:25;24.10;99.90
11820;DHT22;5967;48.944;9.240;2022-08-05T03:37:55;24.10;99.90
11820;DHT22;5967;48.944;9.240;2022-08-05T03:40:24;24.00;99.90
11820;DHT22;5967;48.944;9.240;2022-08-05T03:42:50;24.00;99.90
11820;DHT22;5967;48.944;9.240;2022-08-05T03:45:15;24.00;99.90
11820;DHT22;5967;48.944;9.240;2022-08-05T03:47:41;23.90;99.90
11820;DHT22;5967;48.944;9.240;2022-08-05T03:53:40;23.90;99.90
11820;DHT22;5967;48.944;9.240;2022-08-05T03:59:21;23.80;99.90
11820;DHT22;5967;48.944;9.240;2022-08-05T04:01:49;23.70;99.90
11820;DHT22;5967;48.944;9.240;2022-08-05T04:04:16;23.70;99.90
11820;DHT22;5967;48.944;9.240;2022-08-05T04:06:44;23.70;99.90
11820;DHT22;5967;48.944;9.240;2022-08-05T04:09:11;23.60;99.90
11820;DHT22;5967;48.944;9.240;2022-08-05T04:14:26;23.60;99.90
11820;DHT22;5967;48.944;9.240;2022-08-05T04:16:53;23.60;99.90
11820;DHT22;5967;48.944;9.240;2022-08-05T04:19:19;23.60;99.90
11820;DHT22;5967;48.944;9.240;2022-08-05T04:21:45;23.60;99.90
11820;DHT22;5967;48.944;9.240;2022-08-05T04:24:11;23.60;99.90
11820;DHT22;5967;48.944;9.240;2022-08-05T04:26:36;23.60;99.90
11820;DHT22;5967;48.944;9.240;2022-08-05T04:32:24;23.50;99.90
11820;DHT22;5967;48.944;9.240;2022-08-05T04:34:49;23.50;99.90
11820;DHT22;5967;48.944;9.240;2022-08-05T04:37:15;23.50;99.90
11820;DHT22;5967;48.944;9.240;2022-08-05T04:39:41;23.50;99.90
11820;DHT22;5967;48.944;9.240;2022-08-05T04:42:06;23.50;99.90
11820;DHT22;5967;48.944;9.240;2022-08-05T04:44:32;23.50;99.90
11820;DHT22;5967;48.944;9.240;2022-08-05T04:46:58;23.50;99.90
11820;DHT22;5967;48.944;9.240;2022-08-05T04:49:24;23.50;99.90
11820;DHT22;5967;48.944;9.240;2022-08-05T04:51:50;23.60;99.90
11820;DHT22;5967;48.944;9.240;2022-08-05T04:54:15;23.60;99.90
11820;DHT22;5967;48.944;9.240;2022-08-05T04:56:43;23.60;99.90
11820;DHT22;5967;48.944;9.240;2022-08-05T04:59:08;23.60;99.90
11820;DHT22;5967;48.944;9.240;2022-08-05T05:01:34;23.60;99.90
11820;DHT22;5967;48.944;9.240;2022-08-05T05:03:59;23.70;99.90
11820;DHT22;5967;48.944;9.240;2022-08-05T05:06:25;23.70;99.90
11820;DHT22;5967;48.944;9.240;2022-08-05T05:08:51;23.80;99.90
11820;DHT22;5967;48.944;9.240;2022-08-05T05:11:17;23.90;99.90
11820;DHT22;5967;48.944;9.240;2022-08-05T05:13:42;24.00;99.90
11820;DHT22;5967;48.944;9.240;2022-08-05T05:16:08;24.10;99.90
11820;DHT22;5967;48.944;9.240;2022-08-05T05:18:34;24.20;99.90
11820;DHT22;5967;48.944;9.240;2022-08-05T05:21:01;24.30;99.90
11820;DHT22;5967;48.944;9.240;2022-08-05T05:23:26;24.40;99.90
11820;DHT22;5967;48.944;9.240;2022-08-05T05:25:52;24.50;99.90
11820;DHT22;5967;48.944;9.240;2022-08-05T05:28:20;24.50;99.90
11820;DHT22;5967;48.944;9.240;2022-08-05T05:30:46;24.60;99.90
11820;DHT22;5967;48.944;9.240;2022-08-05T05:33:15;24.70;99.90
11820;DHT22;5967;48.944;9.240;2022-08-05T05:35:40;24.90;99.90
11820;DHT22;5967;48.944;9.240;2022-08-05T05:38:06;25.00;99.90
11820;DHT22;5967;48.944;9.240;2022-08-05T05:40:32;25.00;99.90
11820;DHT22;5967;48.944;9.240;2022-08-05T05:42:58;25.20;99.90
11820;DHT22;5967;48.944;9.240;2022-08-05T05:45:24;25.30;99.90
11820;DHT22;5967;48.944;9.240;2022-08-05T05:47:50;25.40;99.90
11820;DHT22;5967;48.944;9.240;2022-08-05T05:50:17;25.40;99.90
11820;DHT22;5967;48.944;9.240;2022-08-05T05:52:45;25.50;99.90
11820;DHT22;5967;48.944;9.240;2022-08-05T05:55:15;25.60;99.90
11820;DHT22;5967;48.944;9.240;2022-08-05T05:57:45;25.70;99.90
11820;DHT22;5967;48.944;9.240;2022-08-05T06:00:14;26.00;99.90
11820;DHT22;5967;48.944;9.240;2022-08-05T06:02:40;26.30;99.90
11820;DHT22;5967;48.944;9.240;2022-08-05T06:05:09;26.40;99.90
11820;DHT22;5967;48.944;9.240;2022-08-05T06:07:37;26.40;99.90
11820;DHT22;5967;48.944;9.240;2022-08-05T06:10:04;26.40;99.90
11820;DHT22;5967;48.944;9.240;2022-08-05T06:12:30;26.30;99.90
11820;DHT22;5967;48.944;9.240;2022-08-05T06:14:56;26.20;99.90
11820;DHT22;5967;48.944;9.240;2022-08-05T06:17:24;26.20;99.90
11820;DHT22;5967;48.944;9.240;2022-08-05T06:19:50;26.20;99.90
11820;DHT22;5967;48.944;9.240;2022-08-05T06:22:22;26.10;99.90
11820;DHT22;5967;48.944;9.240;2022-08-05T06:24:48;26.00;99.90
11820;DHT22;5967;48.944;9.240;2022-08-05T06:27:14;26.00;99.90
11820;DHT22;5967;48.944;9.240;2022-08-05T06:29:42;26.10;99.90
11820;DHT22;5967;48.944;9.240;2022-08-05T06:32:20;26.10;99.90
11820;DHT22;5967;48.944;9.240;2022-08-05T06:34:46;26.00;99.90
11820;DHT22;5967;48.944;9.240;2022-08-05T06:37:11;26.10;99.90
11820;DHT22;5967;48.944;9.240;2022-08-05T06:39:38;26.10;99.90
11820;DHT22;5967;48.944;9.240;2022-08-05T06:42:04;26.30;99.90
11820;DHT22;5967;48.944;9.240;2022-08-05T06:44:32;26.40;99.90
11820;DHT22;5967;48.944;9.240;2022-08-05T06:46:58;26.40;99.90
11820;DHT22;5967;48.944;9.240;2022-08-05T06:49:24;26.40;99.90
11820;DHT22;5967;48.944;9.240;2022-08-05T06:51:49;26.40;99.90
11820;DHT22;5967;48.944;9.240;2022-08-05T06:54:15;26.40;99.90
11820;DHT22;5967;48.944;9.240;2022-08-05T06:56:41;26.50;99.90
11820;DHT22;5967;48.944;9.240;2022-08-05T06:59:06;26.50;99.90
11820;DHT22;5967;48.944;9.240;2022-08-05T07:01:32;26.60;99.90
11820;DHT22;5967;48.944;9.240;2022-08-05T07:04:01;26.60;99.90
11820;DHT22;5967;48.944;9.240;2022-08-05T07:06:27;26.80;99.90
11820;DHT22;5967;48.944;9.240;2022-08-05T07:11:51;27.00;99.90
11820;DHT22;5967;48.944;9.240;2022-08-05T07:14:17;27.20;99.90
11820;DHT22;5967;48.944;9.240;2022-08-05T07:17:08;27.20;99.90
11820;DHT22;5967;48.944;9.240;2022-08-05T07:19:34;27.20;99.90
11820;DHT22;5967;48.944;9.240;2022-08-05T07:22:03;27.20;99.90
11820;DHT22;5967;48.944;9.240;2022-08-05T07:24:29;27.20;99.90
11820;DHT22;5967;48.944;9.240;2022-08-05T07:26:57;27.20;99.90
11820;DHT22;5967;48.944;9.240;2022-08-05T07:29:22;27.20;99.90
11820;DHT22;5967;48.944;9.240;2022-08-05T07:31:50;27.20;99.90
11820;DHT22;5967;48.944;9.240;2022-08-05T07:34:16;27.10;99.90
11820;DHT22;5967;48.944;9.240;2022-08-05T07:36:42;27.10;99.90
11820;DHT22;5967;48.944;9.240;2022-08-05T07:39:10;27.10;99.90
11820;DHT22;5967;48.944;9.240;2022-08-05T07:41:36;27.20;99.90
11820;DHT22;5967;48.944;9.240;2022-08-05T07:44:06;27.30;99.90
11820;DHT22;5967;48.944;9.240;2022-08-05T07:46:32;27.50;99.90
11820;DHT22;5967;48.944;9.240;2022-08-05T07:49:01;27.50;99.90
11820;DHT22;5967;48.944;9.240;2022-08-05T07:51:34;27.50;99.90
11820;DHT22;5967;48.944;9.240;2022-08-05T07:54:00;27.50;99.90
11820;DHT22;5967;48.944;9.240;2022-08-05T07:56:26;27.50;99.90
11820;DHT22;5967;48.944;9.240;2022-08-05T07:58:53;27.50;99.90
11820;DHT22;5967;48.944;9.240;2022-08-05T08:01:20;27.40;99.90
11820;DHT22;5967;48.944;9.240;2022-08-05T08:03:52;27.40;99.90
11820;DHT22;5967;48.944;9.240;2022-08-05T08:06:20;27.40;99.90
11820;DHT22;5967;48.944;9.240;2022-08-05T08:08:46;27.40;99.90
11820;DHT22;5967;48.944;9.240;2022-08-05T08:11:21;27.40;99.90
11820;DHT22;5967;48.944;9.240;2022-08-05T08:13:46;27.40;99.90
11820;DHT22;5967;48.944;9.240;2022-08-05T08:16:17;27.40;99.90
11820;DHT22;5967;48.944;9.240;2022-08-05T08:18:47;27.40;99.90
11820;DHT22;5967;48.944;9.240;2022-08-05T08:21:16;27.30;99.90
11820;DHT22;5967;48.944;9.240;2022-08-05T08:23:41;27.30;99.90
11820;DHT22;5967;48.944;9.240;2022-08-05T08:26:07;27.30;99.90
11820;DHT22;5967;48.944;9.240;2022-08-05T08:28:35;27.30;99.90
11820;DHT22;5967;48.944;9.240;2022-08-05T08:31:07;27.30;99.90
11820;DHT22;5967;48.944;9.240;2022-08-05T08:33:33;27.40;99.90
11820;DHT22;5967;48.944;9.240;2022-08-05T08:36:05;27.40;99.90
11820;DHT22;5967;48.944;9.240;2022-08-05T08:38:34;27.50;99.90
11820;DHT22;5967;48.944;9.240;2022-08-05T08:41:06;27.70;99.90
11820;DHT22;5967;48.944;9.240;2022-08-05T08:43:43;27.90;99.90
11820;DHT22;5967;48.944;9.240;2022-08-05T08:46:30;28.10;99.90
11820;DHT22;5967;48.944;9.240;2022-08-05T08:48:57;28.20;99.90
11820;DHT22;5967;48.944;9.240;2022-08-05T08:51:26;28.40;99.90
11820;DHT22;5967;48.944;9.240;2022-08-05T08:53:57;28.40;99.90
11820;DHT22;5967;48.944;9.240;2022-08-05T08:56:22;28.50;99.90
11820;DHT22;5967;48.944;9.240;2022-08-05T08:58:57;28.50;99.90
11820;DHT22;5967;48.944;9.240;2022-08-05T09:01:24;28.50;99.90
11820;DHT22;5967;48.944;9.240;2022-08-05T09:03:52;28.40;99.90
11820;DHT22;5967;48.944;9.240;2022-08-05T09:06:28;28.40;99.90
11820;DHT22;5967;48.944;9.240;2022-08-05T09:08:58;28.40;99.90
11820;DHT22;5967;48.944;9.240;2022-08-05T09:11:32;28.30;99.90
11820;DHT22;5967;48.944;9.240;2022-08-05T09:13:58;28.40;99.90
11820;DHT22;5967;48.944;9.240;2022-08-05T09:16:25;28.50;99.90
11820;DHT22;5967;48.944;9.240;2022-08-05T09:18:51;28.60;99.90
11820;DHT22;5967;48.944;9.240;2022-08-05T09:21:20;28.60;99.90
11820;DHT22;5967;48.944;9.240;2022-08-05T09:24:02;28.70;99.90
11820;DHT22;5967;48.944;9.240;2022-08-05T09:26:29;28.80;99.90
11820;DHT22;5967;48.944;9.240;2022-08-05T09:29:03;28.90;99.90
11820;DHT22;5967;48.944;9.240;2022-08-05T09:32:00;29.00;99.90
11820;DHT22;5967;48.944;9.240;2022-08-05T09:35:04;29.10;99.90
11820;DHT22;5967;48.944;9.240;2022-08-05T09:37:36;29.20;99.90
11820;DHT22;5967;48.944;9.240;2022-08-05T09:40:05;29.20;99.90
11820;DHT22;5967;48.944;9.240;2022-08-05T09:42:39;29.20;99.90
11820;DHT22;5967;48.944;9.240;2022-08-05T09:45:06;29.30;99.90
11820;DHT22;5967;48.944;9.240;2022-08-05T09:47:32;29.40;99.90
11820;DHT22;5967;48.944;9.240;2022-08-05T09:49:58;29.40;99.90
11820;DHT22;5967;48.944;9.240;2022-08-05T09:52:25;29.40;99.90
11820;DHT22;5967;48.944;9.240;2022-08-05T09:55:04;29.50;99.90
11820;DHT22;5967;48.944;9.240;2022-08-05T09:57:39;29.70;99.90
11820;DHT22;5967;48.944;9.240;2022-08-05T10:02:42;30.00;99.90
11820;DHT22;5967;48.944;9.240;2022-08-05T10:05:16;30.10;99.90
11820;DHT22;5967;48.944;9.240;2022-08-05T10:07:48;30.30;99.90
11820;DHT22;5967;48.944;9.240;2022-08-05T10:10:15;30.40;99.90
11820;DHT22;5967;48.944;9.240;2022-08-05T10:12:49;30.40;99.90
11820;DHT22;5967;48.944;9.240;2022-08-05T10:15:30;30.40;99.90
11820;DHT22;5967;48.944;9.240;2022-08-05T10:20:39;30.40;99.90
11820;DHT22;5967;48.944;9.240;2022-08-05T10:23:06;30.40;99.90
11820;DHT22;5967;48.944;9.240;2022-08-05T10:25:31;30.40;99.90
11820;DHT22;5967;48.944;9.240;2022-08-05T10:28:00;30.40;99.90
11820;DHT22;5967;48.944;9.240;2022-08-05T10:30:40;30.30;99.90
11820;DHT22;5967;48.944;9.240;2022-08-05T10:33:12;30.30;99.90
11820;DHT22;5967;48.944;9.240;2022-08-05T10:35:38;30.40;99.90
11820;DHT22;5967;48.944;9.240;2022-08-05T10:38:04;30.60;99.90
11820;DHT22;5967;48.944;9.240;2022-08-05T10:46:19;31.00;99.90
11820;DHT22;5967;48.944;9.240;2022-08-05T10:48:55;31.10;99.90
11820;DHT22;5967;48.944;9.240;2022-08-05T10:51:22;31.10;99.90
11820;DHT22;5967;48.944;9.240;2022-08-05T10:56:18;31.10;99.90
11820;DHT22;5967;48.944;9.240;2022-08-05T11:01:39;31.20;99.90
11820;DHT22;5967;48.944;9.240;2022-08-05T11:04:20;31.20;99.90
11820;DHT22;5967;48.944;9.240;2022-08-05T11:09:42;31.00;99.70
11820;DHT22;5967;48.944;9.240;2022-08-05T11:15:26;31.00;99.90
11820;DHT22;5967;48.944;9.240;2022-08-05T11:20:49;31.40;99.80
11820;DHT22;5967;48.944;9.240;2022-08-05T11:26:10;31.80;99.40
11820;DHT22;5967;48.944;9.240;2022-08-05T11:28:39;31.90;99.00
11820;DHT22;5967;48.944;9.240;2022-08-05T11:41:26;32.00;99.10
11820;DHT22;5967;48.944;9.240;2022-08-05T11:44:00;32.20;98.70
11820;DHT22;5967;48.944;9.240;2022-08-05T11:49:43;32.30;97.90
11820;DHT22;5967;48.944;9.240;2022-08-05T11:52:11;32.30;97.80
11820;DHT22;5967;48.944;9.240;2022-08-05T11:54:40;32.30;98.40
11820;DHT22;5967;48.944;9.240;2022-08-05T11:57:06;32.30;97.90
11820;DHT22;5967;48.944;9.240;2022-08-05T11:59:32;32.30;98.00
11820;DHT22;5967;48.944;9.240;2022-08-05T12:02:03;32.40;98.10
11820;DHT22;5967;48.944;9.240;2022-08-05T12:04:43;32.50;97.50
11820;DHT22;5967;48.944;9.240;2022-08-05T12:07:12;32.70;97.50
11820;DHT22;5967;48.944;9.240;2022-08-05T12:09:55;32.80;97.40
11820;DHT22;5967;48.944;9.240;2022-08-05T12:12:31;32.90;96.40
11820;DHT22;5967;48.944;9.240;2022-08-05T12:15:00;33.00;96.10
11820;DHT22;5967;48.944;9.240;2022-08-05T12:17:28;33.00;95.20
11820;DHT22;5967;48.944;9.240;2022-08-05T12:19:59;33.00;95.80
11820;DHT22;5967;48.944;9.240;2022-08-05T12:22:27;33.00;95.80
11820;DHT22;5967;48.944;9.240;2022-08-05T12:24:55;33.10;95.70
11820;DHT22;5967;48.944;9.240;2022-08-05T12:27:26;33.20;95.00
11820;DHT22;5967;48.944;9.240;2022-08-05T12:30:10;33.00;95.20
11820;DHT22;5967;48.944;9.240;2022-08-05T12:32:46;33.00;95.40
11820;DHT22;5967;48.944;9.240;2022-08-05T12:35:15;32.90;95.30
11820;DHT22;5967;48.944;9.240;2022-08-05T12:37:42;32.80;95.10
11820;DHT22;5967;48.944;9.240;2022-08-05T12:40:11;32.70;94.90
11820;DHT22;5967;48.944;9.240;2022-08-05T12:42:39;32.60;95.70
11820;DHT22;5967;48.944;9.240;2022-08-05T12:45:07;32.60;95.10
11820;DHT22;5967;48.944;9.240;2022-08-05T12:47:36;32.60;94.70
11820;DHT22;5967;48.944;9.240;2022-08-05T12:50:15;32.60;94.50
11820;DHT22;5967;48.944;9.240;2022-08-05T12:53:01;32.50;94.50
11820;DHT22;5967;48.944;9.240;2022-08-05T12:55:30;32.40;94.80
11820;DHT22;5967;48.944;9.240;2022-08-05T12:58:00;32.50;94.40
11820;DHT22;5967;48.944;9.240;2022-08-05T13:00:27;32.50;94.30
11820;DHT22;5967;48.944;9.240;2022-08-05T13:02:57;32.50;94.60
11820;DHT22;5967;48.944;9.240;2022-08-05T13:05:26;32.50;95.30
11820;DHT22;5967;48.944;9.240;2022-08-05T13:07:56;32.50;94.80
11820;DHT22;5967;48.944;9.240;2022-08-05T13:10:40;32.50;95.20
11820;DHT22;5967;48.944;9.240;2022-08-05T13:13:12;32.50;95.50
11820;DHT22;5967;48.944;9.240;2022-08-05T13:15:39;32.50;95.40
11820;DHT22;5967;48.944;9.240;2022-08-05T13:18:05;32.50;95.30
11820;DHT22;5967;48.944;9.240;2022-08-05T13:20:34;32.50;95.60
11820;DHT22;5967;48.944;9.240;2022-08-05T13:23:00;32.50;95.20
11820;DHT22;5967;48.944;9.240;2022-08-05T13:25:25;32.40;95.10
11820;DHT22;5967;48.944;9.240;2022-08-05T13:27:53;32.40;95.80
11820;DHT22;5967;48.944;9.240;2022-08-05T13:30:22;32.30;95.40
11820;DHT22;5967;48.944;9.240;2022-08-05T13:32:51;32.30;95.00
11820;DHT22;5967;48.944;9.240;2022-08-05T13:35:18;32.20;95.10
11820;DHT22;5967;48.944;9.240;2022-08-05T13:37:45;32.10;95.20
11820;DHT22;5967;48.944;9.240;2022-08-05T13:40:13;32.10;95.10
11820;DHT22;5967;48.944;9.240;2022-08-05T13:42:43;32.10;95.10
11820;DHT22;5967;48.944;9.240;2022-08-05T13:45:12;32.10;95.20
11820;DHT22;5967;48.944;9.240;2022-08-05T13:47:37;32.10;95.30
11820;DHT22;5967;48.944;9.240;2022-08-05T13:50:06;32.20;95.40
11820;DHT22;5967;48.944;9.240;2022-08-05T13:52:32;32.20;95.70
11820;DHT22;5967;48.944;9.240;2022-08-05T13:54:58;32.10;95.10
11820;DHT22;5967;48.944;9.240;2022-08-05T13:57:24;32.00;95.10
11820;DHT22;5967;48.944;9.240;2022-08-05T13:59:50;32.00;95.30
11820;DHT22;5967;48.944;9.240;2022-08-05T14:02:19;32.00;95.50
11820;DHT22;5967;48.944;9.240;2022-08-05T14:04:50;32.00;95.20
11820;DHT22;5967;48.944;9.240;2022-08-05T14:07:42;32.00;95.10
11820;DHT22;5967;48.944;9.240;2022-08-05T14:10:14;32.00;95.00
11820;DHT22;5967;48.944;9.240;2022-08-05T14:12:41;31.90;94.80
11820;DHT22;5967;48.944;9.240;2022-08-05T14:15:07;31.90;95.20
11820;DHT22;5967;48.944;9.240;2022-08-05T14:17:33;31.80;95.40
11820;DHT22;5967;48.944;9.240;2022-08-05T14:19:59;31.90;95.50
11820;DHT22;5967;48.944;9.240;2022-08-05T14:22:27;32.00;95.20
11820;DHT22;5967;48.944;9.240;2022-08-05T14:25:02;32.00;95.10
11820;DHT22;5967;48.944;9.240;2022-08-05T14:27:31;32.00;95.50
11820;DHT22;5967;48.944;9.240;2022-08-05T14:30:05;32.10;96.10
11820;DHT22;5967;48.944;9.240;2022-08-05T14:32:31;32.20;96.80
11820;DHT22;5967;48.944;9.240;2022-08-05T14:35:07;32.00;97.10
11820;DHT22;5967;48.944;9.240;2022-08-05T14:37:32;31.80;97.50
11820;DHT22;5967;48.944;9.240;2022-08-05T14:39:58;31.40;97.80
11820;DHT22;5967;48.944;9.240;2022-08-05T14:42:24;31.10;98.40
11820;DHT22;5967;48.944;9.240;2022-08-05T14:44:52;30.90;98.90
11820;DHT22;5967;48.944;9.240;2022-08-05T14:47:18;30.60;99.40
11820;DHT22;5967;48.944;9.240;2022-08-05T14:49:44;30.50;99.70
11820;DHT22;5967;48.944;9.240;2022-08-05T14:52:17;30.40;99.90
11820;DHT22;5967;48.944;9.240;2022-08-05T14:54:46;30.40;99.90
11820;DHT22;5967;48.944;9.240;2022-08-05T14:57:14;30.30;99.90
11820;DHT22;5967;48.944;9.240;2022-08-05T14:59:43;30.20;99.90
11820;DHT22;5967;48.944;9.240;2022-08-05T15:02:15;30.10;99.90
11820;DHT22;5967;48.944;9.240;2022-08-05T15:04:41;30.20;99.90
11820;DHT22;5967;48.944;9.240;2022-08-05T15:07:07;30.20;99.90
11820;DHT22;5967;48.944;9.240;2022-08-05T15:09:35;30.20;99.90
11820;DHT22;5967;48.944;9.240;2022-08-05T15:12:04;30.20;99.90
11820;DHT22;5967;48.944;9.240;2022-08-05T15:14:29;30.10;99.90
11820;DHT22;5967;48.944;9.240;2022-08-05T15:16:55;30.00;99.90
11820;DHT22;5967;48.944;9.240;2022-08-05T15:19:21;30.00;99.90
11820;DHT22;5967;48.944;9.240;2022-08-05T15:21:49;30.00;99.90
11820;DHT22;5967;48.944;9.240;2022-08-05T15:24:15;30.00;99.90
11820;DHT22;5967;48.944;9.240;2022-08-05T15:26:43;30.00;99.90
11820;DHT22;5967;48.944;9.240;2022-08-05T15:29:08;30.00;99.90
11820;DHT22;5967;48.944;9.240;2022-08-05T15:31:34;29.80;99.90
11820;DHT22;5967;48.944;9.240;2022-08-05T15:34:02;29.70;99.90
11820;DHT22;5967;48.944;9.240;2022-08-05T15:36:31;29.50;99.90
11820;DHT22;5967;48.944;9.240;2022-08-05T15:39:15;29.40;99.90
11820;DHT22;5967;48.944;9.240;2022-08-05T15:41:43;29.30;99.90
11820;DHT22;5967;48.944;9.240;2022-08-05T15:44:12;29.10;99.90
11820;DHT22;5967;48.944;9.240;2022-08-05T15:46:39;28.90;99.90
11820;DHT22;5967;48.944;9.240;2022-08-05T15:49:05;28.90;99.90
11820;DHT22;5967;48.944;9.240;2022-08-05T15:51:34;28.80;99.90
11820;DHT22;5967;48.944;9.240;2022-08-05T15:53:59;28.80;99.90
11820;DHT22;5967;48.944;9.240;2022-08-05T15:56:25;28.70;99.90
11820;DHT22;5967;48.944;9.240;2022-08-05T15:58:50;28.70;99.90
11820;DHT22;5967;48.944;9.240;2022-08-05T16:01:16;28.70;99.90
11820;DHT22;5967;48.944;9.240;2022-08-05T16:03:44;28.50;99.90
11820;DHT22;5967;48.944;9.240;2022-08-05T16:06:13;28.70;99.90
11820;DHT22;5967;48.944;9.240;2022-08-05T16:08:39;28.80;99.90
11820;DHT22;5967;48.944;9.240;2022-08-05T16:11:04;28.80;99.90
11820;DHT22;5967;48.944;9.240;2022-08-05T16:13:30;28.80;99.90
11820;DHT22;5967;48.944;9.240;2022-08-05T16:15:56;28.80;99.90
11820;DHT22;5967;48.944;9.240;2022-08-05T16:18:21;28.70;99.90
11820;DHT22;5967;48.944;9.240;2022-08-05T16:20:47;28.70;99.90
11820;DHT22;5967;48.944;9.240;2022-08-05T16:23:15;28.60;99.90
11820;DHT22;5967;48.944;9.240;2022-08-05T16:25:44;28.50;99.90
11820;DHT22;5967;48.944;9.240;2022-08-05T16:28:10;28.50;99.90
11820;DHT22;5967;48.944;9.240;2022-08-05T16:30:35;28.50;99.90
11820;DHT22;5967;48.944;9.240;2022-08-05T16:33:09;28.50;99.90
11820;DHT22;5967;48.944;9.240;2022-08-05T16:35:34;28.50;99.90
11820;DHT22;5967;48.944;9.240;2022-08-05T16:38:00;28.40;99.90
11820;DHT22;5967;48.944;9.240;2022-08-05T16:40:28;28.30;99.90
11820;DHT22;5967;48.944;9.240;2022-08-05T16:42:53;28.20;99.90
11820;DHT22;5967;48.944;9.240;2022-08-05T16:45:19;28.10;99.90
11820;DHT22;5967;48.944;9.240;2022-08-05T16:47:48;28.00;99.90
11820;DHT22;5967;48.944;9.240;2022-08-05T16:50:19;28.00;99.90
11820;DHT22;5967;48.944;9.240;2022-08-05T16:52:47;27.90;99.90
11820;DHT22;5967;48.944;9.240;2022-08-05T16:55:16;27.90;99.90
11820;DHT22;5967;48.944;9.240;2022-08-05T16:57:42;27.90;99.90
11820;DHT22;5967;48.944;9.240;2022-08-05T17:00:16;27.90;99.90
11820;DHT22;5967;48.944;9.240;2022-08-05T17:02:47;27.80;99.90
11820;DHT22;5967;48.944;9.240;2022-08-05T17:05:18;27.70;99.90
11820;DHT22;5967;48.944;9.240;2022-08-05T17:07:43;27.70;99.90